Time;durP1;ratioP1;P1;durP2;ratioP2;P2;SDS_P1;SDS_P2;PMS_P1;PMS_P2;Temp;Humidity;BMP_temperature;BMP_pressure;BME280_temperature;BME280_humidity;BME280_pressure;Samples;Min_cycle;Max_cycle;Signal;HPM_P1;HPM_P2
2022/09/29 00:02:13;;;;;;;22.15;2.40;;;5.00;99.90;;;;;;5071320;28;20040;-91
2022/09/29 00:04:54;;;;;;;;;;;;;;;;;;;;;
2022/09/29 00:07:31;;;;;;;9.80;2.35;;;5.30;99.90;;;;;;5087747;28;20109;-92
2022/09/29 00:10:33;;;;;;;12.25;2.50;;;5.00;99.90;;;;;;5073213;28;20498;-92
2022/09/29 00:13:00;;;;;;;10.95;2.42;;;5.00;99.90;;;;;;5087392;28;20044;-91
2022/09/29 00:15:26;;;;;;;6.72;2.83;;;5.40;99.90;;;;;;5071410;28;20141;-92
2022/09/29 00:18:05;;;;;;;5.18;3.42;;;5.00;99.90;;;;;;5051222;28;20492;-92
2022/09/29 00:20:34;;;;;;;6.72;3.40;;;5.00;99.90;;;;;;5050425;28;20048;-91
2022/09/29 00:23:02;;;;;;;3.45;2.30;;;5.00;99.90;;;;;;5034939;28;20488;-91
2022/09/29 00:25:29;;;;;;;9.40;3.72;;;4.90;99.90;;;;;;5051320;28;20107;-91
2022/09/29 00:28:13;;;;;;;533.28;21.27;;;4.90;99.90;;;;;;5051185;28;20028;-91
2022/09/29 00:31:09;;;;;;;9.43;3.72;;;5.10;99.90;;;;;;5051012;28;20375;-91
2022/09/29 00:33:40;;;;;;;4.65;3.40;;;6.00;99.90;;;;;;5025077;28;20590;-91
2022/09/29 00:36:19;;;;;;;4.05;3.05;;;5.40;99.90;;;;;;5050853;28;20234;-91
2022/09/29 00:39:10;;;;;;;21.65;4.20;;;5.20;99.90;;;;;;5051351;28;20504;-92
2022/09/29 00:41:54;;;;;;;3.92;2.90;;;5.10;99.90;;;;;;5050291;28;20048;-91
2022/09/29 00:44:20;;;;;;;4.65;3.17;;;4.90;99.90;;;;;;5073705;22;20127;-91
2022/09/29 00:46:50;;;;;;;4.32;2.80;;;4.90;99.90;;;;;;5070876;28;20139;-91
2022/09/29 00:49:43;;;;;;;5.50;3.00;;;4.80;99.90;;;;;;5070084;28;20051;-91
2022/09/29 00:52:15;;;;;;;4.63;2.80;;;4.90;99.90;;;;;;5067649;28;20045;-91
2022/09/29 00:55:02;;;;;;;6.43;3.88;;;4.80;99.90;;;;;;5051065;28;20060;-90
2022/09/29 00:57:46;;;;;;;;;;;;;;;;;;;;;
2022/09/29 01:00:28;;;;;;;96.70;5.32;;;4.80;99.90;;;;;;5067611;28;20053;-91
2022/09/29 01:03:18;;;;;;;72.05;4.03;;;4.70;99.90;;;;;;5083785;28;20105;-91
2022/09/29 01:06:04;;;;;;;265.55;8.55;;;4.70;99.90;;;;;;5066513;28;20630;-91
2022/09/29 01:08:58;;;;;;;157.93;6.35;;;4.70;99.90;;;;;;5084589;28;20067;-92
2022/09/29 01:11:24;;;;;;;289.35;7.43;;;4.70;99.90;;;;;;5084535;28;20037;-91
2022/09/29 01:14:03;;;;;;;89.28;4.88;;;5.60;99.90;;;;;;5084825;28;20418;-91
2022/09/29 01:16:34;;;;;;;40.47;3.05;;;5.30;99.90;;;;;;5067449;28;20052;-91
2022/09/29 01:19:08;;;;;;;490.77;24.17;;;4.50;99.90;;;;;;5067742;28;20041;-90
2022/09/29 01:22:18;;;;;;;37.42;3.85;;;4.60;99.90;;;;;;5067096;28;20127;-92
2022/09/29 01:25:19;;;;;;;432.77;15.40;;;4.70;99.90;;;;;;5048870;28;20374;-90
2022/09/29 01:35:07;;;;;;;497.67;20.08;;;4.60;99.90;;;;;;5026115;28;20063;-90
2022/09/29 01:38:11;;;;;;;156.57;8.57;;;4.60;99.90;;;;;;5074059;28;20040;-90
2022/09/29 01:40:54;;;;;;;;;;;;;;;;;;;;;
2022/09/29 01:43:35;;;;;;;138.07;7.27;;;4.60;99.90;;;;;;5090711;28;20491;-90
2022/09/29 01:46:24;;;;;;;70.03;5.13;;;4.60;99.90;;;;;;5072192;28;20044;-91
2022/09/29 01:48:54;;;;;;;123.63;8.15;;;4.70;99.90;;;;;;5073481;28;20089;-91
2022/09/29 01:51:40;;;;;;;28.13;3.97;;;5.70;99.90;;;;;;5063223;28;20106;-91
2022/09/29 01:54:21;;;;;;;14.60;4.38;;;4.60;99.90;;;;;;5068330;28;20039;-91
2022/09/29 01:57:11;;;;;;;;;;;;;;;;;;;;;
2022/09/29 01:59:56;;;;;;;42.90;4.85;;;4.50;99.90;;;;;;5089376;28;20482;-90
2022/09/29 02:02:31;;;;;;;23.92;4.45;;;4.60;99.90;;;;;;5072230;28;20097;-91
2022/09/29 02:05:31;;;;;;;283.85;9.40;;;4.50;99.90;;;;;;5065252;28;20117;-91
2022/09/29 02:08:14;;;;;;;141.45;5.65;;;3.90;99.90;;;;;;5065540;28;20044;-92
2022/09/29 02:11:03;;;;;;;59.30;4.63;;;4.50;99.90;;;;;;5063181;28;20464;-91
2022/09/29 02:14:04;;;;;;;5.30;2.00;;;4.40;99.90;;;;;;5018071;28;20059;-91
2022/09/29 02:17:22;;;;;;;;;;;;;;;;;;;;;
2022/09/29 02:19:59;;;;;;;74.88;3.95;;;4.40;99.90;;;;;;5083281;28;20064;-91
2022/09/29 02:22:56;;;;;;;40.13;3.33;;;4.30;99.90;;;;;;5072932;28;20121;-92
2022/09/29 02:25:24;;;;;;;60.75;6.30;;;4.30;99.90;;;;;;5073520;28;20051;-92
2022/09/29 02:27:51;;;;;;;16.20;2.90;;;4.20;99.90;;;;;;5072337;28;20628;-92
2022/09/29 02:30:19;;;;;;;4.75;3.28;;;4.20;99.90;;;;;;5073388;28;20052;-92
2022/09/29 02:32:46;;;;;;;8.98;4.07;;;4.20;99.90;;;;;;5073433;28;20036;-92
2022/09/29 02:35:44;;;;;;;7.80;5.10;;;4.20;99.90;;;;;;5072132;28;20052;-92
2022/09/29 02:38:25;;;;;;;5.88;4.05;;;4.20;99.90;;;;;;5072873;28;20139;-92
2022/09/29 02:41:13;;;;;;;9.13;3.92;;;4.20;99.90;;;;;;5072339;28;20040;-92
2022/09/29 02:44:24;;;;;;;49.65;6.57;;;3.40;99.90;;;;;;5072735;28;20228;-92
2022/09/29 02:47:23;;;;;;;;;;;;;;;;;;;;;
2022/09/29 02:50:31;;;;;;;7.28;4.47;;;5.00;99.90;;;;;;5088458;28;20083;-92
2022/09/29 02:53:25;;;;;;;7.57;5.18;;;4.10;99.90;;;;;;5072994;28;20059;-92
2022/09/29 02:56:06;;;;;;;7.25;5.45;;;4.20;99.90;;;;;;5072080;28;20133;-91
2022/09/29 02:59:00;;;;;;;6.72;4.40;;;4.20;99.90;;;;;;5073500;28;20051;-91
2022/09/29 03:01:30;;;;;;;9.95;5.70;;;4.20;99.90;;;;;;5071947;28;20044;-91
2022/09/29 03:04:01;;;;;;;38.15;6.88;;;4.60;99.90;;;;;;5072311;28;20054;-92
2022/09/29 03:06:27;;;;;;;11.57;6.22;;;4.20;99.90;;;;;;5072440;28;20113;-91
2022/09/29 03:08:59;;;;;;;6.40;4.75;;;4.20;99.90;;;;;;5072419;28;20044;-91
2022/09/29 03:11:27;;;;;;;6.72;5.10;;;4.20;99.90;;;;;;5072321;28;20051;-91
2022/09/29 03:14:02;;;;;;;7.13;5.20;;;4.10;99.90;;;;;;5072191;28;20139;-92
2022/09/29 03:16:31;;;;;;;6.20;5.15;;;4.10;99.90;;;;;;5071759;28;20471;-92
2022/09/29 03:18:59;;;;;;;6.15;4.93;;;4.10;99.90;;;;;;5072051;28;20052;-92
2022/09/29 03:21:25;;;;;;;8.27;5.93;;;4.20;99.90;;;;;;5071840;28;20046;-91
2022/09/29 03:23:51;;;;;;;7.28;5.40;;;4.20;99.90;;;;;;5072079;28;20047;-92
2022/09/29 03:26:17;;;;;;;11.68;3.80;;;4.10;99.90;;;;;;5071732;28;20400;-91
2022/09/29 03:28:53;;;;;;;;;;;;;;;;;;;;;
2022/09/29 03:31:34;;;;;;;74.38;5.07;;;4.00;99.90;;;;;;5088389;28;20040;-91
2022/09/29 03:34:00;;;;;;;54.22;4.90;;;3.50;99.90;;;;;;5071565;28;20051;-91
2022/09/29 03:36:31;;;;;;;201.23;9.00;;;4.30;99.90;;;;;;5072170;28;20059;-91
2022/09/29 03:39:10;;;;;;;134.23;6.97;;;4.60;99.90;;;;;;5071683;28;20063;-92
2022/09/29 03:41:35;;;;;;;11.77;4.20;;;3.90;99.90;;;;;;5071831;28;20138;-91
2022/09/29 03:44:13;;;;;;;7.35;4.68;;;4.40;99.90;;;;;;5071070;28;20127;-92
2022/09/29 03:46:54;;;;;;;10.45;5.03;;;4.00;99.90;;;;;;5071895;28;20170;-91
2022/09/29 03:49:19;;;;;;;6.95;4.80;;;4.70;99.90;;;;;;5071724;28;20087;-91
2022/09/29 03:52:10;;;;;;;5.47;4.03;;;4.70;99.90;;;;;;5070637;28;20109;-91
2022/09/29 03:54:36;;;;;;;453.45;17.90;;;4.00;99.90;;;;;;5071483;28;20040;-91
2022/09/29 03:57:11;;;;;;;43.28;4.93;;;3.70;99.90;;;;;;5071249;28;20059;-91
2022/09/29 03:59:55;;;;;;;135.75;6.25;;;3.70;99.90;;;;;;5070858;28;20044;-92
2022/09/29 04:02:33;;;;;;;;;;;;;;;;;;;;;
2022/09/29 04:05:16;;;;;;;132.98;6.07;;;3.70;99.90;;;;;;5086819;28;20059;-92
2022/09/29 04:08:05;;;;;;;224.27;7.63;;;3.70;99.90;;;;;;5071865;28;20077;-92
2022/09/29 04:14:27;;;;;;;;;;;;;;;;;;;;;
2022/09/29 04:22:14;;;;;;;;;;;;;;;;;;;;;
2022/09/29 04:45:00;;;;;;;202.40;10.27;;;3.60;99.90;;;;;;5044555;28;20048;-91
2022/09/29 04:48:21;;;;;;;;;;;;;;;;;;;;;
2022/09/29 04:54:51;;;;;;;31.48;5.13;;;3.80;99.90;;;;;;4960730;28;20056;-91
2022/09/29 04:57:43;;;;;;;249.77;15.50;;;3.70;99.90;;;;;;4999723;28;20106;-91
2022/09/29 05:01:24;;;;;;;;;;;;;;;;;;;;;
2022/09/29 05:08:12;;;;;;;;;;;;;;;;;;;;;
2022/09/29 05:11:19;;;;;;;157.32;11.93;;;3.80;99.90;;;;;;5078965;22;20091;-91
2022/09/29 05:14:01;;;;;;;;;;;;;;;;;;;;;
2022/09/29 05:21:01;;;;;;;339.50;15.27;;;5.00;99.90;;;;;;4984263;28;20044;-90
2022/09/29 06:11:04;;;;;;;11.88;8.07;;;3.80;99.90;;;;;;5010739;28;20108;-94
2022/09/29 06:13:44;;;;;;;10.55;7.20;;;4.50;99.90;;;;;;4963048;28;20448;-94
2022/09/29 06:16:46;;;;;;;;;;;;;;;;;;;;;
2022/09/29 06:19:41;;;;;;;9.57;7.32;;;3.90;99.90;;;;;;4995229;28;20084;-94
2022/09/29 06:22:55;;;;;;;13.50;5.68;;;3.60;99.90;;;;;;4978208;28;20495;-95
2022/09/29 06:27:33;;;;;;;;;;;;;;;;;;;;;
2022/09/29 06:29:43;;;;;;;28.15;6.78;;;4.20;99.90;;;;;;4969179;28;20057;-95
2022/09/29 06:33:11;;;;;;;77.53;8.32;;;4.00;99.90;;;;;;5010656;28;20049;-94
2022/09/29 06:39:43;;;;;;;12.77;7.97;;;4.10;99.90;;;;;;4994541;28;20060;-95
2022/09/29 06:42:27;;;;;;;9.30;7.40;;;4.30;99.90;;;;;;4989846;28;20140;-94
2022/09/29 06:45:38;;;;;;;10.45;8.45;;;4.20;99.90;;;;;;4977955;28;20057;-94
2022/09/29 06:48:50;;;;;;;10.38;8.15;;;4.40;99.90;;;;;;4989357;28;20141;-94
2022/09/29 06:52:04;;;;;;;12.80;10.05;;;4.60;99.90;;;;;;4978362;28;20561;-94
2022/09/29 06:54:39;;;;;;;27.10;16.75;;;4.10;99.90;;;;;;4900732;28;20057;-94
2022/09/29 06:57:29;;;;;;;25.05;15.73;;;4.50;99.90;;;;;;4979596;28;20077;-94
2022/09/29 07:01:16;;;;;;;;;;;;;;;;;;;;;
2022/09/29 07:04:01;;;;;;;24.80;17.35;;;4.80;99.90;;;;;;4977372;28;20042;-95
2022/09/29 07:06:59;;;;;;;28.15;17.55;;;5.00;99.90;;;;;;4975635;28;20145;-95
2022/09/29 07:09:24;;;;;;;28.95;17.88;;;5.10;99.90;;;;;;4915108;28;20097;-94
2022/09/29 07:12:04;;;;;;;25.05;18.00;;;5.20;99.90;;;;;;5029541;28;20132;-94
2022/09/29 07:14:52;;;;;;;36.03;19.88;;;5.30;99.90;;;;;;5029088;28;20143;-95
2022/09/29 11:16:56;;;;;;;3.78;1.88;;;14.90;99.90;;;;;;5003721;28;20436;-89
2022/09/29 11:19:23;;;;;;;3.53;1.42;;;14.90;99.90;;;;;;4977997;28;20050;-89
2022/09/29 11:22:34;;;;;;;6.55;1.60;;;15.00;99.90;;;;;;4978243;28;20080;-93
2022/09/29 11:25:29;;;;;;;4.28;1.60;;;15.20;99.90;;;;;;4970276;28;20103;-94
2022/09/29 11:28:31;;;;;;;4.65;1.63;;;15.30;99.90;;;;;;4978521;28;20486;-95
2022/09/29 11:37:56;;;;;;;2.97;1.20;;;15.70;99.90;;;;;;4990791;28;20049;-94
2022/09/29 11:41:02;;;;;;;4.68;0.90;;;15.90;99.90;;;;;;4978776;28;20073;-96
2022/09/29 11:44:00;;;;;;;3.80;0.95;;;15.70;99.90;;;;;;4994765;28;20179;-95
2022/09/29 11:47:00;;;;;;;5.40;1.00;;;15.70;99.90;;;;;;4977803;28;20045;-93
2022/09/29 11:49:44;;;;;;;2.92;1.13;;;15.40;99.90;;;;;;4978047;28;20058;-93
2022/09/29 11:52:32;;;;;;;2.97;1.40;;;15.20;99.90;;;;;;4978423;28;20077;-94
2022/09/29 11:55:14;;;;;;;9.20;1.70;;;14.90;99.90;;;;;;4994800;28;20054;-93
2022/09/29 11:58:04;;;;;;;3.72;1.25;;;14.70;99.90;;;;;;4994195;28;20109;-93
2022/09/29 12:01:09;;;;;;;10.85;6.75;;;14.50;99.90;;;;;;4977690;28;20545;-90
2022/09/29 12:03:43;;;;;;;3.95;1.40;;;14.30;99.90;;;;;;4994073;28;20052;-90
2022/09/29 12:07:01;;;;;;;4.20;1.20;;;14.20;99.90;;;;;;4974350;28;20055;-90
2022/09/29 12:10:07;;;;;;;2.60;1.15;;;14.20;99.90;;;;;;4963461;28;20042;-91
2022/09/29 12:13:04;;;;;;;8.32;2.47;;;14.10;99.90;;;;;;4974521;28;20057;-90
2022/09/29 12:16:06;;;;;;;6.00;0.77;;;14.20;99.90;;;;;;4973837;28;20053;-90
2022/09/29 12:18:38;;;;;;;1.85;0.30;;;14.40;99.90;;;;;;4973995;28;20462;-91
2022/09/29 12:21:31;;;;;;;2.40;1.05;;;14.50;99.90;;;;;;4972762;28;20046;-91
2022/09/29 12:24:00;;;;;;;1.88;0.80;;;14.70;99.90;;;;;;4973858;28;20450;-91
2022/09/29 12:26:28;;;;;;;1.08;0.20;;;14.90;99.90;;;;;;4974588;28;20061;-91
2022/09/29 12:29:00;;;;;;;1.27;0.30;;;15.10;99.90;;;;;;4973584;28;20133;-91
2022/09/29 12:31:33;;;;;;;2.65;1.00;;;15.20;99.90;;;;;;4972091;28;20050;-92
2022/09/29 12:34:09;;;;;;;3.03;0.70;;;15.20;99.90;;;;;;4973780;28;20566;-91
2022/09/29 12:36:52;;;;;;;1.13;0.50;;;15.10;99.90;;;;;;4974379;28;20042;-91
2022/09/29 12:40:03;;;;;;;1.02;0.40;;;15.00;99.90;;;;;;4971887;28;20069;-91
2022/09/29 12:42:47;;;;;;;4.20;0.68;;;14.90;99.90;;;;;;4990277;28;20046;-90
2022/09/29 12:45:45;;;;;;;1.25;0.43;;;14.70;99.90;;;;;;4974711;28;20056;-91
2022/09/29 12:48:45;;;;;;;2.42;0.47;;;14.60;99.90;;;;;;4973533;28;20050;-91
2022/09/29 12:53:48;;;;;;;1.30;0.30;;;14.40;99.90;;;;;;4995770;23;20133;-92
2022/09/29 12:56:24;;;;;;;0.93;0.30;;;14.20;99.90;;;;;;4957655;28;20220;-91
2022/09/29 12:59:08;;;;;;;2.00;0.50;;;14.20;99.90;;;;;;4974434;28;20133;-92
2022/09/29 13:01:36;;;;;;;4.00;0.30;;;14.10;99.90;;;;;;4973574;28;20054;-90
2022/09/29 13:04:18;;;;;;;0.90;0.20;;;14.00;99.90;;;;;;4973620;28;20050;-91
2022/09/29 13:06:51;;;;;;;0.98;0.17;;;14.00;99.90;;;;;;4972896;28;20050;-91
2022/09/29 13:09:55;;;;;;;1.88;0.40;;;13.90;99.90;;;;;;4973829;28;20467;-92
2022/09/29 13:12:58;;;;;;;2.25;0.40;;;13.90;99.90;;;;;;4973985;28;20050;-90
2022/09/29 13:15:34;;;;;;;1.57;0.40;;;13.80;99.90;;;;;;4973838;28;20053;-91
2022/09/29 13:18:30;;;;;;;3.88;0.50;;;13.80;99.90;;;;;;4973955;28;20046;-91
2022/09/29 13:21:03;;;;;;;1.13;0.47;;;13.90;99.90;;;;;;4974064;28;20478;-92
2022/09/29 13:23:55;;;;;;;0.73;0.40;;;13.80;99.90;;;;;;4974130;28;20052;-91
2022/09/29 13:26:51;;;;;;;4.30;0.60;;;13.70;99.90;;;;;;4974940;28;20141;-90
2022/09/29 13:29:23;;;;;;;2.60;0.57;;;13.90;99.90;;;;;;4978348;28;20126;-91
2022/09/29 13:32:16;;;;;;;1.67;0.60;;;13.90;99.90;;;;;;4976604;28;20398;-91
2022/09/29 13:35:05;;;;;;;1.45;0.68;;;13.80;99.90;;;;;;4913761;28;20059;-93
2022/09/29 13:37:45;;;;;;;1.55;0.50;;;13.90;99.90;;;;;;4977619;28;20046;-91
2022/09/29 13:40:19;;;;;;;1.23;0.40;;;14.00;99.90;;;;;;4977025;28;20129;-90
2022/09/29 13:42:49;;;;;;;4.82;0.82;;;14.00;99.90;;;;;;4976698;28;20463;-90
2022/09/29 13:45:23;;;;;;;0.80;0.50;;;14.10;99.90;;;;;;4977342;28;20053;-92
2022/09/29 13:47:52;;;;;;;2.13;0.43;;;14.10;99.90;;;;;;4977714;28;20038;-90
2022/09/29 13:50:42;;;;;;;3.28;0.50;;;14.20;99.90;;;;;;4976334;28;20046;-91
2022/09/29 13:53:24;;;;;;;1.60;0.30;;;14.20;99.90;;;;;;4976524;28;20498;-90
2022/09/29 13:55:54;;;;;;;1.52;0.28;;;14.20;99.90;;;;;;4976536;28;20054;-91
2022/09/29 13:58:23;;;;;;;3.75;0.40;;;14.20;99.90;;;;;;4976616;28;20038;-92
2022/09/29 14:00:52;;;;;;;0.25;0.20;;;14.20;99.90;;;;;;4976560;28;20050;-91
2022/09/29 14:03:32;;;;;;;2.47;0.20;;;14.20;99.90;;;;;;4976444;28;20070;-89
2022/09/29 14:06:14;;;;;;;1.30;0.30;;;14.40;99.90;;;;;;4979400;28;20041;-90
2022/09/29 14:09:02;;;;;;;4.20;0.50;;;14.50;99.90;;;;;;4980094;28;20050;-91
2022/09/29 14:11:34;;;;;;;2.05;0.50;;;14.50;99.90;;;;;;4979425;28;20042;-89
2022/09/29 14:14:23;;;;;;;3.20;0.40;;;14.40;99.90;;;;;;4979720;28;20429;-91
2022/09/29 14:16:54;;;;;;;0.75;0.20;;;14.40;99.90;;;;;;4939560;28;20479;-90
2022/09/29 14:19:21;;;;;;;0.43;0.20;;;14.30;99.90;;;;;;4940135;28;20613;-90
2022/09/29 14:21:53;;;;;;;1.67;0.30;;;14.30;99.90;;;;;;4939931;28;20059;-89
2022/09/29 14:24:45;;;;;;;0.80;0.20;;;14.20;99.90;;;;;;4940166;28;20142;-91
2022/09/29 14:27:32;;;;;;;3.28;0.30;;;14.10;99.90;;;;;;4939969;28;20193;-90
2022/09/29 14:30:15;;;;;;;0.68;0.20;;;14.10;99.90;;;;;;4939736;28;20133;-90
2022/09/29 14:32:55;;;;;;;1.15;0.20;;;14.00;99.90;;;;;;4939198;28;20090;-91
2022/09/29 14:35:52;;;;;;;0.55;0.17;;;14.10;99.90;;;;;;4939865;28;20049;-91
2022/09/29 14:38:21;;;;;;;1.73;0.40;;;14.00;99.90;;;;;;4940163;28;20068;-91
2022/09/29 14:41:18;;;;;;;2.80;0.30;;;14.00;99.90;;;;;;4939295;28;20471;-91
2022/09/29 14:43:56;;;;;;;3.17;0.80;;;13.90;99.90;;;;;;4940266;28;20050;-95
2022/09/29 14:52:56;;;;;;;3.90;0.35;;;13.80;99.90;;;;;;4994407;28;20081;-91
2022/09/29 14:55:32;;;;;;;2.03;0.50;;;13.80;99.90;;;;;;4968152;28;20050;-92
2022/09/29 14:58:32;;;;;;;3.05;0.40;;;13.70;99.90;;;;;;4980637;28;20486;-88
2022/09/29 15:01:08;;;;;;;3.53;0.40;;;13.70;99.90;;;;;;4978154;28;20175;-93
2022/09/29 15:03:47;;;;;;;2.53;0.38;;;13.50;99.90;;;;;;4979395;28;20409;-93
2022/09/29 15:06:19;;;;;;;0.90;0.20;;;13.70;99.90;;;;;;4978931;28;20042;-94
2022/09/29 15:08:56;;;;;;;2.58;0.30;;;13.70;99.90;;;;;;4979050;28;20557;-96
2022/09/29 15:11:27;;;;;;;1.45;0.20;;;13.80;99.90;;;;;;4979999;28;20046;-94
2022/09/29 15:13:56;;;;;;;4.80;0.30;;;13.80;99.90;;;;;;4978498;28;20055;-91
2022/09/29 15:16:51;;;;;;;3.55;0.20;;;13.80;99.90;;;;;;4978308;28;20077;-92
2022/09/29 15:19:31;;;;;;;2.83;0.20;;;13.80;99.90;;;;;;4994719;28;20085;-94
2022/09/29 15:22:19;;;;;;;0.75;0.20;;;13.70;99.90;;;;;;4978189;28;20056;-93
2022/09/29 15:24:56;;;;;;;2.30;0.40;;;13.70;99.90;;;;;;4978336;28;20052;-94
2022/09/29 15:27:22;;;;;;;1.30;0.57;;;13.70;99.90;;;;;;4977501;28;20505;-94
2022/09/29 15:29:52;;;;;;;0.85;0.20;;;13.70;99.90;;;;;;4976816;28;20081;-96
2022/09/29 15:32:25;;;;;;;1.65;0.30;;;13.70;99.90;;;;;;4979439;28;20041;-95
2022/09/29 15:34:52;;;;;;;1.27;0.10;;;13.70;99.90;;;;;;4982683;28;20049;-96
2022/09/29 15:37:18;;;;;;;1.95;0.20;;;13.70;99.90;;;;;;4978637;28;20080;-95
2022/09/29 15:39:50;;;;;;;0.52;0.10;;;13.70;99.90;;;;;;4977626;28;20050;-92
2022/09/29 15:42:22;;;;;;;0.82;0.20;;;13.60;99.90;;;;;;4977987;28;20038;-92
2022/09/29 15:44:57;;;;;;;0.93;0.15;;;13.60;99.90;;;;;;4978558;28;20141;-92
2022/09/29 15:47:33;;;;;;;0.55;0.10;;;13.60;99.90;;;;;;4977793;28;20057;-93
2022/09/29 15:50:03;;;;;;;1.75;0.10;;;13.60;99.90;;;;;;4977064;28;20041;-95
2022/09/29 15:52:30;;;;;;;0.98;0.30;;;13.50;99.90;;;;;;4974243;28;20058;-92
2022/09/29 15:54:57;;;;;;;1.73;0.60;;;13.50;99.90;;;;;;4974298;28;20057;-92
2022/09/29 15:57:56;;;;;;;1.05;0.40;;;13.50;99.90;;;;;;4974362;28;20050;-93
2022/09/29 16:00:22;;;;;;;1.58;0.20;;;13.40;99.90;;;;;;4973942;28;20061;-94
2022/09/29 16:03:06;;;;;;;2.85;1.27;;;13.40;99.90;;;;;;4974292;28;20043;-93
2022/09/29 16:05:36;;;;;;;2.72;1.27;;;13.30;99.90;;;;;;4974691;28;20050;-93
2022/09/29 16:08:05;;;;;;;2.58;0.40;;;13.30;99.90;;;;;;4974157;28;20049;-93
2022/09/29 16:10:33;;;;;;;1.90;0.30;;;13.30;99.90;;;;;;4974412;28;20057;-92
2022/09/29 16:13:07;;;;;;;1.70;0.80;;;13.30;99.90;;;;;;4973872;28;20397;-93
2022/09/29 16:15:37;;;;;;;5.13;0.55;;;13.20;99.90;;;;;;4963714;28;20097;-92
2022/09/29 16:18:12;;;;;;;4.30;0.40;;;13.20;99.90;;;;;;4957624;28;20042;-92
2022/09/29 16:20:42;;;;;;;7.20;0.52;;;13.10;99.90;;;;;;4970852;28;20057;-92
2022/09/29 16:23:27;;;;;;;4.82;0.60;;;13.10;99.90;;;;;;4962524;28;20050;-90
2022/09/29 16:26:17;;;;;;;3.83;0.80;;;13.10;99.90;;;;;;4964118;28;20042;-90
2022/09/29 16:29:17;;;;;;;11.15;0.40;;;13.00;99.90;;;;;;4954180;28;20138;-91
2022/09/29 16:31:45;;;;;;;5.53;0.40;;;13.00;99.90;;;;;;4954369;28;20387;-92
2022/09/29 16:34:20;;;;;;;4.25;0.50;;;13.00;99.90;;;;;;4954168;28;20102;-92
2022/09/29 16:36:54;;;;;;;0.63;0.20;;;13.00;99.90;;;;;;4954452;28;20046;-92
2022/09/29 16:39:24;;;;;;;2.17;0.20;;;13.00;99.90;;;;;;4954556;28;20042;-91
2022/09/29 16:41:55;;;;;;;0.45;0.28;;;13.00;99.90;;;;;;4953905;28;20133;-92
2022/09/29 16:44:22;;;;;;;3.10;0.30;;;12.90;99.90;;;;;;4954715;28;20121;-92
2022/09/29 16:46:56;;;;;;;2.60;0.35;;;12.90;99.90;;;;;;4954061;28;20050;-92
2022/09/29 16:49:31;;;;;;;1.45;0.20;;;12.90;99.90;;;;;;4971009;28;20042;-91
2022/09/29 16:52:02;;;;;;;1.90;0.30;;;12.80;99.90;;;;;;4972645;28;20128;-92
2022/09/29 16:54:33;;;;;;;1.65;0.52;;;12.80;99.90;;;;;;4973182;28;20061;-92
2022/09/29 16:57:17;;;;;;;1.20;0.38;;;12.80;99.90;;;;;;4973427;28;20422;-92
2022/09/29 16:59:44;;;;;;;1.38;0.30;;;12.80;99.90;;;;;;4974443;28;20483;-91
2022/09/29 17:02:14;;;;;;;0.85;0.20;;;12.70;99.90;;;;;;4975400;28;20042;-90
2022/09/29 17:04:40;;;;;;;2.58;0.30;;;12.60;99.90;;;;;;4976851;28;20050;-91
2022/09/29 17:07:13;;;;;;;4.35;0.38;;;12.50;99.90;;;;;;4975030;28;20043;-91
2022/09/29 17:09:41;;;;;;;0.68;0.28;;;12.40;99.90;;;;;;4977530;28;20053;-92
2022/09/29 17:12:13;;;;;;;0.77;0.20;;;12.30;99.90;;;;;;4977289;28;20038;-91
2022/09/29 17:14:39;;;;;;;1.90;0.40;;;12.20;99.90;;;;;;4976366;28;20058;-91
2022/09/29 17:17:04;;;;;;;3.10;0.40;;;12.10;99.90;;;;;;4976817;28;20072;-90
2022/09/29 17:19:31;;;;;;;1.98;0.30;;;12.00;99.90;;;;;;4976582;28;20050;-90
2022/09/29 17:21:57;;;;;;;1.48;0.30;;;11.90;99.90;;;;;;4976023;28;20050;-90
2022/09/29 17:24:23;;;;;;;2.45;0.50;;;11.80;99.90;;;;;;4976510;28;20116;-91
2022/09/29 17:29:34;;;;;;;4.30;0.50;;;11.60;99.90;;;;;;4984937;28;20050;-90
2022/09/29 17:32:01;;;;;;;1.00;0.28;;;11.50;99.90;;;;;;4976625;28;20050;-91
2022/09/29 17:34:28;;;;;;;3.55;0.32;;;11.40;99.90;;;;;;4976297;28;20078;-89
2022/09/29 17:36:56;;;;;;;2.95;0.60;;;11.30;99.90;;;;;;4975984;28;20537;-91
2022/09/29 17:39:22;;;;;;;2.05;0.80;;;11.20;99.90;;;;;;4976462;28;20050;-90
2022/09/29 17:41:48;;;;;;;3.70;0.80;;;11.10;99.90;;;;;;4975872;28;20046;-90
2022/09/29 17:44:14;;;;;;;9.82;1.25;;;11.10;99.90;;;;;;4976354;28;20514;-91
2022/09/29 17:46:40;;;;;;;3.95;0.85;;;11.00;99.90;;;;;;4974352;28;20041;-89
2022/09/29 17:49:11;;;;;;;2.42;0.90;;;11.00;99.90;;;;;;4976258;28;20442;-92
2022/09/29 17:51:37;;;;;;;5.75;1.67;;;11.00;99.90;;;;;;4975569;28;20081;-90
2022/09/29 17:54:03;;;;;;;6.43;1.48;;;11.00;99.90;;;;;;4975982;28;20050;-90
2022/09/29 17:56:36;;;;;;;5.25;1.10;;;11.00;99.90;;;;;;4975641;28;20073;-91
2022/09/29 17:59:04;;;;;;;2.42;1.20;;;11.00;99.90;;;;;;4975912;28;20050;-91
2022/09/29 18:01:33;;;;;;;4.45;1.45;;;10.90;99.90;;;;;;4956209;28;20074;-90
2022/09/29 18:04:00;;;;;;;2.70;0.90;;;10.90;99.90;;;;;;4974163;28;20046;-90
2022/09/29 18:06:27;;;;;;;2.95;0.90;;;10.90;99.90;;;;;;4970108;28;20475;-90
2022/09/29 18:08:53;;;;;;;2.90;0.80;;;10.90;99.90;;;;;;4961177;28;20038;-90
2022/09/29 18:11:25;;;;;;;1.30;0.70;;;10.80;99.90;;;;;;4970591;28;20493;-91
2022/09/29 18:13:52;;;;;;;2.67;1.33;;;10.80;99.90;;;;;;4975627;28;20100;-92
2022/09/29 18:16:21;;;;;;;3.30;1.10;;;10.80;99.90;;;;;;4975498;28;20054;-91
2022/09/29 18:18:47;;;;;;;3.17;1.20;;;10.80;99.90;;;;;;4975757;28;20042;-91
2022/09/29 18:21:16;;;;;;;3.35;1.10;;;10.60;99.90;;;;;;4972047;28;20490;-90
2022/09/29 18:23:42;;;;;;;2.22;1.08;;;10.50;99.90;;;;;;4958450;28;20054;-91
2022/09/29 18:26:11;;;;;;;2.33;1.08;;;10.50;99.90;;;;;;4967955;28;20045;-93
2022/09/29 18:28:37;;;;;;;4.88;1.30;;;10.30;99.90;;;;;;4957869;28;20062;-93
2022/09/29 18:31:06;;;;;;;2.05;1.10;;;10.20;99.90;;;;;;4966026;28;20533;-93
2022/09/29 18:33:33;;;;;;;2.50;1.10;;;10.10;99.90;;;;;;4961037;28;20042;-91
2022/09/29 18:36:00;;;;;;;2.60;1.30;;;10.00;99.90;;;;;;4968761;28;20050;-89
2022/09/29 18:38:26;;;;;;;5.00;1.10;;;9.90;99.90;;;;;;4974732;28;20038;-92
2022/09/29 18:40:53;;;;;;;2.85;1.20;;;9.90;99.90;;;;;;4974905;28;20060;-90
2022/09/29 18:43:20;;;;;;;3.25;1.10;;;9.80;99.90;;;;;;4975622;28;20565;-91
2022/09/29 18:45:47;;;;;;;4.28;1.10;;;9.80;99.90;;;;;;4975443;28;20078;-90
2022/09/29 18:48:14;;;;;;;2.92;1.55;;;9.70;99.90;;;;;;4974373;28;20042;-90
2022/09/29 18:50:43;;;;;;;3.60;1.20;;;9.70;99.90;;;;;;4974939;28;20046;-90
2022/09/29 18:53:18;;;;;;;2.65;1.38;;;9.60;99.90;;;;;;4961100;28;20058;-90
2022/09/29 18:56:01;;;;;;;4.50;1.50;;;9.60;99.90;;;;;;4960077;28;20109;-89
2022/09/29 18:58:27;;;;;;;2.97;1.52;;;9.60;99.90;;;;;;4968169;28;20042;-89
2022/09/29 19:00:54;;;;;;;4.28;1.88;;;9.50;99.90;;;;;;4953397;28;20854;-89
2022/09/29 19:03:22;;;;;;;4.43;2.00;;;9.50;99.90;;;;;;4953553;28;20728;-90
2022/09/29 19:05:49;;;;;;;4.18;1.98;;;9.50;99.90;;;;;;4952913;28;20146;-89
2022/09/29 19:08:15;;;;;;;3.67;1.90;;;9.50;99.90;;;;;;4968513;28;20053;-89
2022/09/29 19:10:48;;;;;;;4.35;2.10;;;9.50;99.90;;;;;;4989740;28;20057;-88
2022/09/29 19:13:15;;;;;;;4.15;1.70;;;9.50;99.90;;;;;;4990262;28;20042;-89
2022/09/29 19:15:42;;;;;;;3.55;1.90;;;9.50;99.90;;;;;;4990759;28;20082;-90
2022/09/29 19:18:14;;;;;;;18.63;3.92;;;9.40;99.90;;;;;;4990166;28;20046;-89
2022/09/29 19:20:39;;;;;;;6.25;2.50;;;9.40;99.90;;;;;;4989270;28;20043;-91
2022/09/29 19:23:07;;;;;;;4.05;1.95;;;9.40;99.90;;;;;;4990217;28;20482;-89
2022/09/29 19:25:35;;;;;;;5.57;2.30;;;9.30;99.90;;;;;;4986551;28;20117;-91
2022/09/29 19:28:04;;;;;;;3.20;1.92;;;9.30;99.90;;;;;;4973312;28;20047;-92
2022/09/29 19:30:33;;;;;;;3.95;2.55;;;9.30;99.90;;;;;;4964000;28;20053;-90
2022/09/29 19:32:59;;;;;;;8.98;3.83;;;9.20;99.90;;;;;;4954164;28;20049;-91
2022/09/29 19:35:24;;;;;;;8.85;3.72;;;9.10;99.90;;;;;;4954623;28;20798;-90
2022/09/29 19:37:51;;;;;;;5.70;3.33;;;9.10;99.90;;;;;;4954328;28;20089;-91
2022/09/29 19:40:21;;;;;;;5.60;3.45;;;9.10;99.90;;;;;;4954659;28;20181;-91
2022/09/29 19:42:47;;;;;;;8.50;4.25;;;9.00;99.90;;;;;;4954244;28;20129;-89
2022/09/29 19:45:13;;;;;;;10.75;4.90;;;9.00;99.90;;;;;;4960269;28;20039;-91
2022/09/29 19:47:40;;;;;;;7.60;4.05;;;8.90;99.90;;;;;;4968952;28;20043;-90
2022/09/29 19:52:52;;;;;;;6.57;3.58;;;8.90;99.90;;;;;;4980794;28;20054;-90
2022/09/29 19:55:19;;;;;;;6.85;3.55;;;8.90;99.90;;;;;;4960796;28;20300;-88
2022/09/29 19:57:45;;;;;;;5.53;3.42;;;8.90;99.90;;;;;;4967280;28;20038;-89
2022/09/29 20:00:14;;;;;;;5.68;3.97;;;8.80;99.90;;;;;;4971864;28;20065;-90
2022/09/29 20:02:43;;;;;;;10.40;3.30;;;8.80;99.90;;;;;;4961664;28;20042;-89
2022/09/29 20:05:09;;;;;;;11.30;6.28;;;8.80;99.90;;;;;;4966065;28;20073;-89
2022/09/29 20:07:36;;;;;;;11.88;7.70;;;8.70;99.90;;;;;;4961475;28;20060;-90
2022/09/29 20:10:03;;;;;;;9.60;6.75;;;8.70;99.90;;;;;;4963482;28;20125;-90
2022/09/29 20:12:29;;;;;;;7.13;4.70;;;8.70;99.90;;;;;;4962822;28;20055;-92